createdAt,value
2023-01-19T00:01:32.777Z,97082.38
2023-01-19T00:04:00.430Z,97092.69
2023-01-19T00:06:27.534Z,97101.20
2023-01-19T00:08:55.924Z,97107.96
2023-01-19T00:11:23.611Z,97111.83
2023-01-19T00:13:51.451Z,97121.69
2023-01-19T00:16:19.497Z,97138.11
2023-01-19T00:18:47.487Z,97142.77
2023-01-19T00:21:14.440Z,97148.24
2023-01-19T00:23:46.852Z,97162.98
2023-01-19T00:26:15.834Z,97169.17
2023-01-19T00:28:43.901Z,97172.14
2023-01-19T00:31:11.896Z,97182.77
2023-01-19T00:33:38.941Z,97189.23
2023-01-19T00:36:06.224Z,97202.69
2023-01-19T00:38:35.781Z,97199.30
2023-01-19T00:41:03.048Z,97206.02
2023-01-19T00:43:30.553Z,97204.95
2023-01-19T00:45:59.829Z,97213.64
2023-01-19T00:48:27.310Z,97218.70
2023-01-19T00:50:54.524Z,97228.05
2023-01-19T00:53:24.047Z,97232.11
2023-01-19T00:55:51.699Z,97243.31
2023-01-19T00:58:18.965Z,97248.23
2023-01-19T01:00:48.875Z,97257.17
2023-01-19T01:03:17.906Z,97262.40
2023-01-19T01:05:48.703Z,97265.23
2023-01-19T01:08:18.978Z,97262.11
2023-01-19T01:10:46.924Z,97267.04
2023-01-19T01:13:21.170Z,97266.86
2023-01-19T01:15:51.913Z,97258.83
2023-01-19T01:18:20.038Z,97264.39
2023-01-19T01:20:47.557Z,97267.45
2023-01-19T01:23:14.880Z,97263.45
2023-01-19T01:25:42.090Z,97265.21
2023-01-19T01:28:10.095Z,97269.36
2023-01-19T01:30:40.846Z,97271.34
2023-01-19T01:33:09.044Z,97273.42
2023-01-19T01:35:36.075Z,97275.61
2023-01-19T01:38:05.256Z,97276.77
2023-01-19T01:40:33.642Z,97283.11
2023-01-19T01:43:02.473Z,97280.50
2023-01-19T01:45:35.265Z,97280.02
2023-01-19T01:48:09.385Z,97283.83
2023-01-19T01:51:00.184Z,97279.48
2023-01-19T01:53:27.687Z,97280.53
2023-01-19T01:55:54.659Z,97292.00
2023-01-19T01:58:22.636Z,97293.84
2023-01-19T02:01:29.450Z,97294.33
2023-01-19T02:03:57.259Z,97277.35
2023-01-19T02:06:24.335Z,97292.39
2023-01-19T02:09:19.405Z,97295.92
2023-01-19T02:12:05.471Z,97293.34
2023-01-19T02:14:36.839Z,97298.55
2023-01-19T02:17:03.972Z,97310.73
2023-01-19T02:19:35.279Z,97313.69
2023-01-19T02:22:19.437Z,97319.30
2023-01-19T02:24:46.549Z,97314.08
2023-01-19T02:27:13.689Z,97322.94
2023-01-19T02:29:40.838Z,97322.52
2023-01-19T02:32:07.860Z,97325.20
2023-01-19T02:34:35.015Z,97330.37
2023-01-19T02:37:12.204Z,97332.23
2023-01-19T02:39:52.802Z,97320.04
2023-01-19T02:42:44.019Z,97313.36
2023-01-19T02:45:14.009Z,97308.03
2023-01-19T02:47:48.876Z,97314.65
2023-01-19T02:50:35.431Z,97313.73
2023-01-19T02:53:33.619Z,97310.84
2023-01-19T02:56:27.040Z,97301.79
2023-01-19T02:59:17.229Z,97298.08
2023-01-19T03:02:11.649Z,97298.79
2023-01-19T03:05:10.936Z,97295.64
2023-01-19T03:07:57.363Z,97297.34
2023-01-19T03:10:52.570Z,97304.11
2023-01-19T03:13:29.537Z,97300.35
2023-01-19T03:15:58.225Z,97302.73
2023-01-19T03:18:26.884Z,97306.36
2023-01-19T03:20:55.358Z,97307.60
2023-01-19T03:23:24.330Z,97307.14
2023-01-19T03:25:51.364Z,97302.44
2023-01-19T03:28:19.912Z,97311.95
2023-01-19T03:30:54.207Z,97311.77
2023-01-19T03:33:32.437Z,97306.92
2023-01-19T03:36:03.390Z,97309.77
2023-01-19T03:38:33.859Z,97310.57
2023-01-19T03:41:02.462Z,97303.63
2023-01-19T03:43:32.072Z,97296.78
2023-01-19T03:45:59.324Z,97299.88
2023-01-19T03:48:26.449Z,97291.38
2023-01-19T03:50:54.524Z,97288.80
2023-01-19T03:53:22.334Z,97281.38
2023-01-19T03:55:50.576Z,97275.77
2023-01-19T03:58:17.595Z,97271.40
2023-01-19T04:00:44.663Z,97267.17
2023-01-19T04:03:16.004Z,97264.46
2023-01-19T04:05:43.326Z,97266.12
2023-01-19T04:08:11.497Z,97269.70
2023-01-19T04:10:39.953Z,97263.29
2023-01-19T04:13:07.615Z,97270.41
2023-01-19T04:15:35.067Z,97268.23
2023-01-19T04:18:02.527Z,97266.76
2023-01-19T04:20:29.737Z,97255.78
2023-01-19T04:23:00.513Z,97257.89
2023-01-19T04:25:27.974Z,97249.41
2023-01-19T04:27:57.519Z,97252.91
2023-01-19T04:30:25.433Z,97242.71
2023-01-19T04:32:53.328Z,97253.91
2023-01-19T04:35:21.622Z,97253.67
2023-01-19T04:37:49.542Z,97245.98
2023-01-19T04:40:16.886Z,97255.36
2023-01-19T04:42:44.905Z,97262.97
2023-01-19T04:45:12.828Z,97256.90
2023-01-19T04:47:39.892Z,97263.27
2023-01-19T04:50:08.230Z,97263.73
2023-01-19T04:52:39.559Z,97268.15
2023-01-19T04:55:07.803Z,97274.23
2023-01-19T04:57:37.117Z,97279.77
2023-01-19T05:00:08.341Z,97284.86
2023-01-19T05:02:35.481Z,97283.90
2023-01-19T05:05:04.224Z,97293.27
2023-01-19T05:07:32.242Z,97300.70
2023-01-19T05:09:59.336Z,97311.74
2023-01-19T05:12:26.449Z,97318.17
2023-01-19T05:14:53.462Z,97328.84
2023-01-19T05:17:21.038Z,97334.23
2023-01-19T05:19:48.623Z,97337.88
2023-01-19T05:22:15.789Z,97349.55
2023-01-19T05:24:42.820Z,97343.66
2023-01-19T05:27:10.039Z,97343.48
2023-01-19T05:29:36.947Z,97348.85
2023-01-19T05:32:04.794Z,97347.30
2023-01-19T05:34:32.439Z,97351.20
2023-01-19T05:36:59.401Z,97349.11
2023-01-19T05:39:26.528Z,97349.84
2023-01-19T05:41:53.982Z,97356.39
2023-01-19T05:44:21.751Z,97359.70
2023-01-19T05:46:49.033Z,97363.91
2023-01-19T05:49:16.030Z,97372.20
2023-01-19T05:51:44.975Z,97365.81
2023-01-19T05:54:14.277Z,97360.96
2023-01-19T05:56:42.413Z,97363.14
2023-01-19T05:59:10.134Z,97368.39
2023-01-19T06:01:39.704Z,97377.80
2023-01-19T06:04:07.182Z,97369.64
2023-01-19T06:06:34.477Z,97374.48
2023-01-19T06:09:01.548Z,97380.63
2023-01-19T06:11:30.451Z,97379.73
2023-01-19T06:13:57.731Z,97373.55
2023-01-19T06:16:24.944Z,97366.08
2023-01-19T06:18:53.230Z,97374.96
2023-01-19T06:21:20.323Z,97376.70
2023-01-19T06:23:48.905Z,97380.05
2023-01-19T06:26:15.933Z,97387.64
2023-01-19T06:28:43.543Z,97386.32
2023-01-19T06:31:34.144Z,97380.32
2023-01-19T06:34:01.833Z,97378.73
2023-01-19T06:36:29.181Z,97389.90
2023-01-19T06:38:56.689Z,97390.73
2023-01-19T06:41:29.601Z,97391.52
2023-01-19T06:43:59.891Z,97385.54
2023-01-19T06:46:27.119Z,97398.35
2023-01-19T06:48:54.323Z,97385.05
2023-01-19T06:51:23.455Z,97375.08
2023-01-19T06:53:50.887Z,97376.56
2023-01-19T06:56:17.965Z,97383.72
2023-01-19T06:58:47.637Z,97381.50
2023-01-19T07:01:15.113Z,97383.40
2023-01-19T07:03:55.698Z,97385.74
2023-01-19T07:06:24.925Z,97380.44
2023-01-19T07:08:54.223Z,97384.27
2023-01-19T07:11:32.655Z,97389.13
2023-01-19T07:14:08.423Z,97394.45
2023-01-19T07:16:36.625Z,97394.33
2023-01-19T07:19:04.552Z,97401.09
2023-01-19T07:21:36.801Z,97403.05
2023-01-19T07:24:05.279Z,97403.91
2023-01-19T07:26:33.031Z,97402.60
2023-01-19T07:29:01.167Z,97395.17
2023-01-19T07:31:28.692Z,97376.84
2023-01-19T07:34:01.421Z,97372.33
2023-01-19T07:36:30.849Z,97364.54
2023-01-19T07:38:58.127Z,97356.55
2023-01-19T07:41:26.057Z,97347.73
2023-01-19T07:43:54.551Z,97338.43
2023-01-19T07:46:24.351Z,97326.70
2023-01-19T07:49:15.756Z,97320.17
2023-01-19T07:51:43.246Z,97339.81
2023-01-19T07:54:11.292Z,97363.23
2023-01-19T07:56:40.092Z,97396.95
2023-01-19T07:59:10.641Z,97426.48
2023-01-19T08:01:44.503Z,97460.96
2023-01-19T08:04:12.859Z,97504.33
2023-01-19T08:06:39.979Z,97554.88
2023-01-19T08:09:10.097Z,97609.18
2023-01-19T08:11:37.556Z,97638.84
2023-01-19T08:14:06.951Z,97686.52
2023-01-19T08:16:36.269Z,97719.55
2023-01-19T08:19:03.453Z,97762.72
2023-01-19T08:21:32.895Z,97788.46
2023-01-19T08:24:00.085Z,97819.15
2023-01-19T08:26:31.914Z,97850.61
2023-01-19T08:29:01.207Z,97872.02
2023-01-19T08:31:28.465Z,97898.66
2023-01-19T08:33:56.651Z,97920.25
2023-01-19T08:36:24.702Z,97952.60
2023-01-19T08:38:52.552Z,97972.73
2023-01-19T08:41:21.930Z,97990.15
2023-01-19T08:43:49.332Z,98013.52
2023-01-19T08:46:21.418Z,98032.98
2023-01-19T08:48:49.091Z,98050.16
2023-01-19T08:51:16.987Z,98069.71
2023-01-19T08:53:46.339Z,98092.58
2023-01-19T08:56:14.048Z,98117.96
2023-01-19T08:58:42.643Z,98138.72
2023-01-19T09:01:16.442Z,98154.64
2023-01-19T09:03:44.064Z,98175.27
2023-01-19T09:06:12.705Z,98200.10
2023-01-19T09:08:40.159Z,98221.75
2023-01-19T09:11:10.944Z,98249.11
2023-01-19T09:13:39.391Z,98270.64
2023-01-19T09:16:09.053Z,98298.34
2023-01-19T09:18:37.070Z,98322.92
2023-01-19T09:21:04.908Z,98347.63
2023-01-19T09:23:33.819Z,98362.08
2023-01-19T09:26:02.582Z,98373.67
2023-01-19T09:28:29.813Z,98380.41
2023-01-19T09:30:58.403Z,98394.85
2023-01-19T09:33:27.470Z,98395.73
2023-01-19T09:35:58.695Z,98402.70
2023-01-19T09:38:31.505Z,98404.22
2023-01-19T09:41:01.011Z,98412.58
2023-01-19T09:43:51.027Z,98431.77
2023-01-19T09:46:28.768Z,98435.84
2023-01-19T09:49:04.284Z,98451.08
2023-01-19T09:51:37.989Z,98465.33
2023-01-19T09:54:16.261Z,98477.88
2023-01-19T09:56:44.720Z,98483.84
2023-01-19T09:59:15.119Z,98496.23
2023-01-19T10:01:52.138Z,98500.56
2023-01-19T10:04:38.915Z,98500.48
2023-01-19T10:07:16.785Z,98501.80
2023-01-19T10:09:54.940Z,98512.98
2023-01-19T10:12:40.819Z,98519.00
2023-01-19T10:15:20.272Z,98506.94
2023-01-19T10:18:18.957Z,98512.85
2023-01-19T10:20:56.314Z,98502.50
2023-01-19T10:23:36.171Z,98513.61
2023-01-19T10:26:14.314Z,98520.27
2023-01-19T10:28:41.811Z,98534.66
2023-01-19T10:31:09.595Z,98547.04
2023-01-19T10:33:38.040Z,98556.69
2023-01-19T10:36:06.683Z,98558.15
2023-01-19T10:38:34.098Z,98552.56
2023-01-19T10:41:06.600Z,98537.24
2023-01-19T10:43:48.812Z,98537.58
2023-01-19T10:46:21.712Z,98562.02
2023-01-19T10:48:50.636Z,98578.21
2023-01-19T10:51:21.031Z,98608.36
2023-01-19T10:53:59.971Z,98647.86
2023-01-19T10:56:30.887Z,98682.46
2023-01-19T10:58:59.626Z,98739.14
2023-01-19T11:01:27.991Z,98772.42
2023-01-19T11:03:59.547Z,98796.29
2023-01-19T11:06:32.709Z,98820.15
2023-01-19T11:09:20.164Z,98854.19
2023-01-19T11:11:52.150Z,98875.73
2023-01-19T11:14:21.998Z,98911.91
2023-01-19T11:16:54.561Z,98945.09
2023-01-19T11:19:31.757Z,98977.95
2023-01-19T11:22:21.321Z,98994.79
2023-01-19T11:24:49.073Z,99006.23
2023-01-19T11:27:17.792Z,99015.86
2023-01-19T11:30:18.146Z,99045.27
2023-01-19T11:32:46.285Z,99065.45
2023-01-19T11:35:33.467Z,99076.86
2023-01-19T11:38:13.054Z,99091.70
2023-01-19T11:40:40.460Z,99099.94
2023-01-19T11:43:11.119Z,99109.27
2023-01-19T11:45:38.501Z,99116.27
2023-01-19T11:48:06.006Z,99111.91
2023-01-19T11:50:41.085Z,99100.11
2023-01-19T11:53:23.878Z,99096.37
2023-01-19T11:56:06.644Z,99086.63
2023-01-19T11:58:43.930Z,99078.77
2023-01-19T12:01:29.784Z,99085.48
2023-01-19T12:04:00.794Z,99082.83
2023-01-19T12:06:31.632Z,99080.83
2023-01-19T12:09:10.048Z,99065.47
2023-01-19T12:11:48.685Z,99066.61
2023-01-19T12:14:31.529Z,99101.23
2023-01-19T12:17:02.098Z,99158.83
2023-01-19T12:19:50.146Z,99210.97
2023-01-19T12:22:17.205Z,99230.58
2023-01-19T12:24:49.355Z,99247.34
2023-01-19T12:27:38.905Z,99265.04
2023-01-19T12:30:26.640Z,99271.55
2023-01-19T12:33:35.383Z,99288.94
2023-01-19T12:36:09.404Z,99297.02
2023-01-19T12:38:40.121Z,99326.50
2023-01-19T12:41:17.346Z,99352.98
2023-01-19T12:43:44.493Z,99354.52
2023-01-19T12:46:20.684Z,99364.91
2023-01-19T12:48:47.973Z,99369.42
2023-01-19T12:51:27.690Z,99367.89
2023-01-19T12:53:56.178Z,99357.92
2023-01-19T12:56:34.402Z,99360.81
2023-01-19T12:59:01.559Z,99366.13
2023-01-19T13:01:28.963Z,99377.46
2023-01-19T13:04:06.872Z,99388.36
2023-01-19T13:07:05.540Z,99379.16
2023-01-19T13:09:39.551Z,99381.33
2023-01-19T13:12:19.998Z,99383.09
2023-01-19T13:14:47.480Z,99377.92
2023-01-19T13:17:31.218Z,99380.23
2023-01-19T13:20:05.499Z,99371.06
2023-01-19T13:23:14.661Z,99373.27
2023-01-19T13:25:47.848Z,99369.02
2023-01-19T13:28:16.901Z,99369.13
2023-01-19T13:30:54.605Z,99370.20
2023-01-19T13:33:23.905Z,99368.16
2023-01-19T13:35:58.240Z,99361.09
2023-01-19T13:38:26.651Z,99363.29
2023-01-19T13:40:54.516Z,99363.77
2023-01-19T13:43:28.121Z,99358.44
2023-01-19T13:45:55.864Z,99345.46
2023-01-19T13:48:23.688Z,99339.50
2023-01-19T13:51:05.246Z,99334.77
2023-01-19T13:53:33.031Z,99324.17
2023-01-19T13:56:12.786Z,99310.36
2023-01-19T13:58:39.923Z,99304.34
2023-01-19T14:01:21.815Z,99298.19
2023-01-19T14:03:51.897Z,99293.39
2023-01-19T14:18:31.093Z,99202.81
2023-01-19T14:21:05.571Z,99165.41
2023-01-19T14:23:36.673Z,99160.17
2023-01-19T14:26:03.916Z,99157.39
2023-01-19T14:28:35.882Z,99143.54
2023-01-19T14:31:17.929Z,99135.13
2023-01-19T14:33:46.515Z,99127.11
2023-01-19T14:36:14.126Z,99119.66
2023-01-19T14:38:45.358Z,99111.48
2023-01-19T14:41:13.278Z,99103.11
2023-01-19T14:43:43.919Z,99090.06
2023-01-19T14:46:18.488Z,99079.48
2023-01-19T14:48:47.440Z,99079.52
2023-01-19T14:51:22.585Z,99071.08
2023-01-19T14:53:54.339Z,99057.25
2023-01-19T14:56:31.392Z,99055.58
2023-01-19T14:58:59.590Z,99044.44
2023-01-19T15:01:31.556Z,99038.80
2023-01-19T15:03:58.736Z,99023.95
2023-01-19T15:06:26.041Z,99021.21
2023-01-19T15:08:53.378Z,99016.64
2023-01-19T15:11:31.130Z,99014.67
2023-01-19T15:13:58.725Z,99012.66
2023-01-19T15:16:26.136Z,99008.40
2023-01-19T15:18:53.252Z,99002.23
2023-01-19T15:21:23.106Z,98987.77
2023-01-19T15:23:50.155Z,98983.91
2023-01-19T15:26:18.865Z,98976.89
2023-01-19T15:28:46.488Z,98978.11
2023-01-19T15:31:15.276Z,98967.94
2023-01-19T15:33:42.571Z,98959.42
2023-01-19T15:36:18.328Z,98930.14
2023-01-19T15:38:46.895Z,98922.32
2023-01-19T15:41:14.840Z,98919.66
2023-01-19T15:43:41.913Z,98915.39
2023-01-19T15:46:09.009Z,98913.71
2023-01-19T15:48:35.974Z,98914.17
2023-01-19T15:51:03.174Z,98911.34
2023-01-19T15:53:30.253Z,98903.73
2023-01-19T15:55:57.329Z,98900.11
2023-01-19T15:58:24.930Z,98892.96
2023-01-19T16:00:56.550Z,98893.64
2023-01-19T16:03:24.674Z,98886.29
2023-01-19T16:05:51.690Z,98877.11
2023-01-19T16:08:18.727Z,98867.59
2023-01-19T16:10:45.750Z,98866.96
2023-01-19T16:13:12.758Z,98868.84
2023-01-19T16:15:41.994Z,98869.81
2023-01-19T16:18:08.960Z,98876.99
2023-01-19T16:20:35.989Z,98873.10
2023-01-19T16:23:14.747Z,98888.02
2023-01-19T16:25:42.809Z,98882.42
2023-01-19T16:28:10.060Z,98875.95
2023-01-19T16:30:37.349Z,98878.44
2023-01-19T16:33:05.186Z,98874.74
2023-01-19T16:35:32.332Z,98870.02
2023-01-19T16:37:59.581Z,98875.65
2023-01-19T16:40:26.734Z,98877.39
2023-01-19T16:42:53.983Z,98877.75
2023-01-19T16:45:21.133Z,98881.06
2023-01-19T16:47:51.665Z,98886.94
2023-01-19T18:19:50.114Z,98494.50
2023-01-19T18:22:17.615Z,98552.98
2023-01-19T18:24:46.118Z,98574.77
2023-01-19T18:27:13.359Z,98599.09
2023-01-19T18:29:40.679Z,98607.59
2023-01-19T18:32:07.900Z,98614.98
2023-01-19T18:34:35.556Z,98622.48
2023-01-19T18:37:02.823Z,98620.45
2023-01-19T18:39:31.394Z,98626.20
2023-01-19T18:42:00.556Z,98632.52
2023-01-19T18:44:27.861Z,98634.68
2023-01-19T18:46:57.115Z,98644.45
2023-01-19T18:49:24.336Z,98651.81
2023-01-19T18:51:51.515Z,98654.45
2023-01-19T18:54:18.771Z,98661.13
2023-01-19T18:56:48.938Z,98663.02
2023-01-19T18:59:16.215Z,98669.80
2023-01-19T19:01:43.526Z,98673.64
2023-01-19T19:04:10.849Z,98676.73
2023-01-19T19:06:38.047Z,98686.33
2023-01-19T19:09:05.686Z,98693.70
2023-01-19T19:11:32.995Z,98699.35
2023-01-19T19:14:01.455Z,98702.42
2023-01-19T19:16:29.933Z,98708.75
2023-01-19T19:18:57.283Z,98713.67
2023-01-19T19:21:25.740Z,98715.86
2023-01-19T19:23:54.613Z,98719.96
2023-01-19T19:26:22.167Z,98730.34
2023-01-19T19:28:49.391Z,98737.75
2023-01-19T19:31:20.846Z,98756.57
2023-01-19T19:33:48.977Z,98762.16
2023-01-19T19:36:16.360Z,98769.97
2023-01-19T19:38:46.723Z,98770.00
2023-01-19T19:41:16.289Z,98779.86
2023-01-19T19:43:43.589Z,98781.40
2023-01-19T19:46:12.474Z,98792.70
2023-01-19T19:48:39.809Z,98794.25
2023-01-19T19:51:27.357Z,98797.56
2023-01-19T19:53:56.050Z,98805.35
2023-01-19T19:56:23.886Z,98804.04
2023-01-19T19:58:51.813Z,98807.09
2023-01-19T20:01:26.946Z,98810.78
2023-01-19T20:03:55.160Z,98814.70
2023-01-19T20:06:23.805Z,98812.25
2023-01-19T20:08:55.182Z,98819.07
2023-01-19T20:11:24.297Z,98823.63
2023-01-19T20:13:51.519Z,98829.63
2023-01-19T20:16:20.219Z,98831.86
2023-01-19T20:18:51.084Z,98841.16
2023-01-19T20:21:20.489Z,98848.90
2023-01-19T20:23:48.317Z,98848.75
2023-01-19T20:26:16.548Z,98848.87
2023-01-19T20:28:43.738Z,98854.39
2023-01-19T20:31:19.520Z,98856.12
2023-01-19T20:33:49.032Z,98854.48
2023-01-19T20:36:16.377Z,98853.96
2023-01-19T20:38:43.741Z,98857.54
2023-01-19T20:41:11.731Z,98858.22
2023-01-19T20:43:38.943Z,98867.08
2023-01-19T20:46:06.261Z,98872.84
2023-01-19T20:48:33.531Z,98868.74
2023-01-19T20:51:08.749Z,98866.38
2023-01-19T20:53:36.322Z,98861.24
2023-01-19T20:56:06.197Z,98867.02
2023-01-19T20:58:33.793Z,98863.94
2023-01-19T21:01:01.299Z,98864.23
2023-01-19T21:03:29.771Z,98860.95
2023-01-19T21:05:59.478Z,98855.45
2023-01-19T21:08:26.856Z,98859.14
2023-01-19T21:10:57.735Z,98853.77
2023-01-19T21:13:24.971Z,98849.70
2023-01-19T21:15:52.224Z,98846.56
2023-01-19T21:18:19.443Z,98845.38
2023-01-19T21:20:49.658Z,98845.58
2023-01-19T21:23:17.944Z,98843.56
2023-01-19T21:25:55.678Z,98849.46
2023-01-19T21:28:23.204Z,98850.26
2023-01-19T21:30:51.242Z,98855.99
2023-01-19T21:33:18.662Z,98859.79
2023-01-19T21:35:52.863Z,98859.03
2023-01-19T21:38:20.261Z,98861.25
2023-01-19T21:40:47.463Z,98855.83
2023-01-19T21:43:14.814Z,98852.60
2023-01-19T21:45:43.084Z,98851.39
2023-01-19T21:48:10.384Z,98847.30
2023-01-19T21:50:37.555Z,98843.33
2023-01-19T21:53:07.993Z,98838.89
2023-01-19T21:55:35.647Z,98837.86
2023-01-19T21:58:03.127Z,98836.98
2023-01-19T22:00:33.125Z,98836.20
2023-01-19T22:03:05.297Z,98835.61
2023-01-19T22:05:36.911Z,98829.95
2023-01-19T22:08:06.431Z,98834.15
2023-01-19T22:10:39.810Z,98838.21
2023-01-19T22:13:07.920Z,98838.75
2023-01-19T22:15:35.161Z,98838.52
2023-01-19T22:18:02.517Z,98837.35
2023-01-19T22:20:29.729Z,98835.80
2023-01-19T22:22:57.235Z,98831.19
2023-01-19T22:25:28.084Z,98830.66
2023-01-19T22:27:56.611Z,98830.23
2023-01-19T22:30:23.891Z,98829.56
2023-01-19T22:32:51.222Z,98831.52
2023-01-19T22:35:18.491Z,98830.18
2023-01-19T22:37:45.952Z,98833.38
2023-01-19T22:40:13.444Z,98834.65
2023-01-19T22:42:40.772Z,98836.05
2023-01-19T22:45:08.910Z,98839.88
2023-01-19T22:47:36.420Z,98838.36
2023-01-19T22:50:03.718Z,98839.77
2023-01-19T22:52:30.905Z,98841.70
2023-01-19T22:54:58.572Z,98843.70
2023-01-19T22:57:25.760Z,98847.82
2023-01-19T22:59:52.944Z,98848.33
2023-01-19T23:02:21.078Z,98853.79
2023-01-19T23:04:48.654Z,98856.29
2023-01-19T23:07:15.869Z,98862.39
2023-01-19T23:09:43.089Z,98859.36
2023-01-19T23:12:10.267Z,98859.31
2023-01-19T23:14:37.922Z,98856.19
2023-01-19T23:17:05.105Z,98853.47
2023-01-19T23:19:32.418Z,98856.77
2023-01-19T23:21:59.585Z,98853.70
2023-01-19T23:24:26.864Z,98854.73
2023-01-19T23:26:54.098Z,98857.94
2023-01-19T23:29:21.430Z,98861.55
2023-01-19T23:31:49.141Z,98863.77
2023-01-19T23:34:16.456Z,98863.45
2023-01-19T23:36:43.805Z,98865.46
2023-01-19T23:39:19.120Z,98865.52
2023-01-19T23:41:46.511Z,98868.27
2023-01-19T23:44:13.783Z,98873.90
2023-01-19T23:46:41.768Z,98883.03
2023-01-19T23:49:08.981Z,98882.02
2023-01-19T23:51:36.250Z,98886.41
2023-01-19T23:54:03.477Z,98886.55
2023-01-19T23:56:33.071Z,98885.67
2023-01-19T23:59:11.281Z,98887.64
